sensor_id;sensor_type;location;lat;lon;timestamp;pressure;altitude;pressure_sealevel;temperature;humidity
69667;BME280;66534;52.370;4.832;2023-02-22T00:00:21;101563.75;;;7.54;100.00
69667;BME280;66534;52.370;4.832;2023-02-22T00:01:00;101572.13;;;7.69;100.00
69667;BME280;66534;52.370;4.832;2023-02-22T00:01:36;101560.13;;;7.59;100.00
69667;BME280;66534;52.370;4.832;2023-02-22T00:02:19;101561.03;;;7.58;100.00
69667;BME280;66534;52.370;4.832;2023-02-22T00:02:58;101563.59;;;7.61;100.00
69667;BME280;66534;52.370;4.832;2023-02-22T00:03:29;101563.75;;;7.52;100.00
69667;BME280;66534;52.370;4.832;2023-02-22T00:04:04;101567.13;;;7.59;100.00
69667;BME280;66534;52.370;4.832;2023-02-22T00:04:36;101563.75;;;7.52;100.00
69667;BME280;66534;52.370;4.832;2023-02-22T00:05:08;101566.41;;;7.51;100.00
69667;BME280;66534;52.370;4.832;2023-02-22T00:05:39;101561.84;;;7.62;100.00
69667;BME280;66534;52.370;4.832;2023-02-22T00:06:17;101567.50;;;7.82;100.00
69667;BME280;66534;52.370;4.832;2023-02-22T00:06:49;101559.16;;;7.65;100.00
69667;BME280;66534;52.370;4.832;2023-02-22T00:07:19;101558.97;;;7.74;100.00
69667;BME280;66534;52.370;4.832;2023-02-22T00:07:50;101559.19;;;7.63;100.00
69667;BME280;66534;52.370;4.832;2023-02-22T00:08:22;101563.66;;;7.58;100.00
69667;BME280;66534;52.370;4.832;2023-02-22T00:08:54;101562.91;;;7.52;100.00
69667;BME280;66534;52.370;4.832;2023-02-22T00:09:24;101557.81;;;7.45;100.00
69667;BME280;66534;52.370;4.832;2023-02-22T00:09:55;101555.16;;;7.47;100.00
69667;BME280;66534;52.370;4.832;2023-02-22T00:10:26;101559.28;;;7.59;100.00
69667;BME280;66534;52.370;4.832;2023-02-22T00:10:57;101558.06;;;7.75;100.00
69667;BME280;66534;52.370;4.832;2023-02-22T00:11:28;101552.91;;;7.72;100.00
69667;BME280;66534;52.370;4.832;2023-02-22T00:12:00;101562.34;;;7.79;100.00
69667;BME280;66534;52.370;4.832;2023-02-22T00:12:31;101545.47;;;7.94;100.00
69667;BME280;66534;52.370;4.832;2023-02-22T00:13:01;101550.88;;;7.85;100.00
69667;BME280;66534;52.370;4.832;2023-02-22T00:13:32;101557.06;;;7.81;100.00
69667;BME280;66534;52.370;4.832;2023-02-22T00:14:02;101556.38;;;7.72;100.00
69667;BME280;66534;52.370;4.832;2023-02-22T00:14:32;101560.72;;;7.73;100.00
69667;BME280;66534;52.370;4.832;2023-02-22T00:15:03;101555.19;;;7.87;100.00
69667;BME280;66534;52.370;4.832;2023-02-22T00:15:35;101554.59;;;7.74;100.00
69667;BME280;66534;52.370;4.832;2023-02-22T00:16:05;101559.19;;;7.63;100.00
69667;BME280;66534;52.370;4.832;2023-02-22T00:16:55;101559.94;;;7.68;100.00
69667;BME280;66534;52.370;4.832;2023-02-22T00:17:46;101559.94;;;7.68;100.00
69667;BME280;66534;52.370;4.832;2023-02-22T00:18:35;101555.41;;;7.77;100.00
69667;BME280;66534;52.370;4.832;2023-02-22T00:19:25;101553.50;;;7.85;100.00
69667;BME280;66534;52.370;4.832;2023-02-22T00:20:15;101553.22;;;7.58;100.00
69667;BME280;66534;52.370;4.832;2023-02-22T00:21:09;101559.19;;;7.63;100.00
69667;BME280;66534;52.370;4.832;2023-02-22T00:21:59;101559.66;;;7.40;100.00
69667;BME280;66534;52.370;4.832;2023-02-22T00:22:49;101554.88;;;7.62;100.00
69667;BME280;66534;52.370;4.832;2023-02-22T00:23:40;101553.06;;;7.64;100.00
69667;BME280;66534;52.370;4.832;2023-02-22T00:24:37;101549.75;;;7.56;100.00
69667;BME280;66534;52.370;4.832;2023-02-22T00:25:26;101558.13;;;7.30;100.00
69667;BME280;66534;52.370;4.832;2023-02-22T00:26:18;101562.44;;;7.33;100.00
69667;BME280;66534;52.370;4.832;2023-02-22T00:27:09;101566.84;;;7.29;100.00
69667;BME280;66534;52.370;4.832;2023-02-22T00:27:59;101562.47;;;7.30;100.00
69667;BME280;66534;52.370;4.832;2023-02-22T00:28:50;101558.44;;;7.15;100.00
69667;BME280;66534;52.370;4.832;2023-02-22T00:29:43;101555.44;;;7.33;100.00
69667;BME280;66534;52.370;4.832;2023-02-22T00:30:33;101555.06;;;7.52;100.00
69667;BME280;66534;52.370;4.832;2023-02-22T00:31:23;101519.38;;;7.52;100.00
69667;BME280;66534;52.370;4.832;2023-02-22T00:32:12;101559.78;;;7.78;100.00
69667;BME280;66534;52.370;4.832;2023-02-22T00:33:02;101550.34;;;7.70;100.00
69667;BME280;66534;52.370;4.832;2023-02-22T00:33:53;101551.44;;;7.59;100.00
69667;BME280;66534;52.370;4.832;2023-02-22T00:34:43;101556.81;;;7.51;100.00
69667;BME280;66534;52.370;4.832;2023-02-22T00:35:32;101552.19;;;7.22;100.00
69667;BME280;66534;52.370;4.832;2023-02-22T00:36:21;101554.88;;;7.17;100.00
69667;BME280;66534;52.370;4.832;2023-02-22T00:37:10;101547.47;;;7.39;100.00
69667;BME280;66534;52.370;4.832;2023-02-22T00:38:00;101557.44;;;7.20;100.00
69667;BME280;66534;52.370;4.832;2023-02-22T00:38:50;101561.25;;;7.47;100.00
69667;BME280;66534;52.370;4.832;2023-02-22T00:39:39;101553.34;;;7.51;100.00
69667;BME280;66534;52.370;4.832;2023-02-22T00:40:29;101548.19;;;7.47;100.00
69667;BME280;66534;52.370;4.832;2023-02-22T00:41:20;101545.38;;;7.58;100.00
69667;BME280;66534;52.370;4.832;2023-02-22T00:42:09;101544.97;;;7.78;100.00
69667;BME280;66534;52.370;4.832;2023-02-22T00:42:59;101553.44;;;7.88;100.00
69667;BME280;66534;52.370;4.832;2023-02-22T00:43:49;101547.72;;;7.70;100.00
69667;BME280;66534;52.370;4.832;2023-02-22T00:44:38;101536.78;;;7.53;100.00
69667;BME280;66534;52.370;4.832;2023-02-22T00:45:28;101537.94;;;7.40;100.00
69667;BME280;66534;52.370;4.832;2023-02-22T00:46:18;101537.28;;;7.29;100.00
69667;BME280;66534;52.370;4.832;2023-02-22T00:47:07;101545.19;;;7.24;100.00
69667;BME280;66534;52.370;4.832;2023-02-22T00:47:56;101541.84;;;7.17;100.00
69667;BME280;66534;52.370;4.832;2023-02-22T00:48:46;101544.25;;;7.27;100.00
69667;BME280;66534;52.370;4.832;2023-02-22T00:49:35;101540.22;;;7.10;100.00
69667;BME280;66534;52.370;4.832;2023-02-22T00:50:26;101542.06;;;7.05;100.00
69667;BME280;66534;52.370;4.832;2023-02-22T00:51:16;101541.16;;;7.08;100.00
69667;BME280;66534;52.370;4.832;2023-02-22T00:51:46;101541.97;;;7.11;100.00
69667;BME280;66534;52.370;4.832;2023-02-22T00:52:17;101533.97;;;7.19;100.00
69667;BME280;66534;52.370;4.832;2023-02-22T00:52:47;101548.03;;;7.10;100.00
69667;BME280;66534;52.370;4.832;2023-02-22T00:53:17;101537.06;;;6.93;100.00
69667;BME280;66534;52.370;4.832;2023-02-22T00:53:48;101538.09;;;6.86;100.00
69667;BME280;66534;52.370;4.832;2023-02-22T00:54:18;101533.75;;;6.85;100.00
69667;BME280;66534;52.370;4.832;2023-02-22T00:54:49;101531.91;;;6.91;100.00
69667;BME280;66534;52.370;4.832;2023-02-22T00:55:21;101538.59;;;7.05;100.00
69667;BME280;66534;52.370;4.832;2023-02-22T00:56:02;101537.84;;;6.99;100.00
69667;BME280;66534;52.370;4.832;2023-02-22T00:56:33;101535.81;;;7.15;100.00
69667;BME280;66534;52.370;4.832;2023-02-22T00:57:04;101535.56;;;7.26;100.00
69667;BME280;66534;52.370;4.832;2023-02-22T00:57:34;101525.00;;;7.34;100.00
69667;BME280;66534;52.370;4.832;2023-02-22T00:58:06;101532.66;;;7.41;100.00
69667;BME280;66534;52.370;4.832;2023-02-22T00:58:36;101531.72;;;7.45;100.00
69667;BME280;66534;52.370;4.832;2023-02-22T00:59:07;101524.88;;;7.40;100.00
69667;BME280;66534;52.370;4.832;2023-02-22T00:59:37;101523.19;;;7.37;100.00
69667;BME280;66534;52.370;4.832;2023-02-22T01:00:08;101535.72;;;7.18;100.00
69667;BME280;66534;52.370;4.832;2023-02-22T01:00:43;101538.88;;;7.36;100.00
69667;BME280;66534;52.370;4.832;2023-02-22T01:01:14;101524.19;;;7.32;100.00
69667;BME280;66534;52.370;4.832;2023-02-22T01:01:45;101529.63;;;7.18;100.00
69667;BME280;66534;52.370;4.832;2023-02-22T01:02:15;101535.81;;;7.14;100.00
69667;BME280;66534;52.370;4.832;2023-02-22T01:02:46;101527.97;;;7.15;100.00
69667;BME280;66534;52.370;4.832;2023-02-22T01:03:20;101536.66;;;7.14;100.00
69667;BME280;66534;52.370;4.832;2023-02-22T01:03:50;101521.06;;;7.13;100.00
69667;BME280;66534;52.370;4.832;2023-02-22T01:04:21;101537.03;;;6.96;100.00
69667;BME280;66534;52.370;4.832;2023-02-22T01:04:51;101531.84;;;6.94;100.00
69667;BME280;66534;52.370;4.832;2023-02-22T01:05:25;101537.06;;;6.93;100.00
69667;BME280;66534;52.370;4.832;2023-02-22T01:05:57;101529.88;;;7.07;100.00
69667;BME280;66534;52.370;4.832;2023-02-22T01:06:28;101521.09;;;7.11;100.00
69667;BME280;66534;52.370;4.832;2023-02-22T01:06:58;101525.28;;;7.18;100.00
69667;BME280;66534;52.370;4.832;2023-02-22T01:07:29;101526.13;;;7.20;100.00
69667;BME280;66534;52.370;4.832;2023-02-22T01:08:00;101523.59;;;7.16;100.00
69667;BME280;66534;52.370;4.832;2023-02-22T01:08:31;101519.97;;;7.23;100.00
69667;BME280;66534;52.370;4.832;2023-02-22T01:09:02;101517.13;;;7.35;100.00
69667;BME280;66534;52.370;4.832;2023-02-22T01:09:33;101514.69;;;7.28;100.00
69667;BME280;66534;52.370;4.832;2023-02-22T01:10:04;101518.50;;;7.10;100.00
69667;BME280;66534;52.370;4.832;2023-02-22T01:10:40;101520.91;;;7.20;100.00
69667;BME280;66534;52.370;4.832;2023-02-22T01:11:11;101519.19;;;7.19;100.00
69667;BME280;66534;52.370;4.832;2023-02-22T01:11:42;101513.88;;;7.24;100.00
69667;BME280;66534;52.370;4.832;2023-02-22T01:12:14;101515.69;;;7.20;100.00
69667;BME280;66534;52.370;4.832;2023-02-22T01:12:45;101508.69;;;7.22;100.00
69667;BME280;66534;52.370;4.832;2023-02-22T01:13:16;101509.28;;;7.35;100.00
69667;BME280;66534;52.370;4.832;2023-02-22T01:13:48;101509.44;;;7.29;100.00
69667;BME280;66534;52.370;4.832;2023-02-22T01:14:19;101506.16;;;7.19;100.00
69667;BME280;66534;52.370;4.832;2023-02-22T01:14:50;101505.97;;;7.29;100.00
69667;BME280;66534;52.370;4.832;2023-02-22T01:15:21;101507.88;;;7.19;100.00
69667;BME280;66534;52.370;4.832;2023-02-22T01:15:54;101508.25;;;7.01;100.00
69667;BME280;66534;52.370;4.832;2023-02-22T01:16:25;101505.69;;;6.97;100.00
69667;BME280;66534;52.370;4.832;2023-02-22T01:16:56;101509.09;;;7.01;100.00
69667;BME280;66534;52.370;4.832;2023-02-22T01:17:26;101507.34;;;7.02;100.00
69667;BME280;66534;52.370;4.832;2023-02-22T01:17:57;101516.19;;;6.93;100.00
69667;BME280;66534;52.370;4.832;2023-02-22T01:18:28;101515.22;;;7.00;100.00
69667;BME280;66534;52.370;4.832;2023-02-22T01:18:59;101523.03;;;7.00;100.00
69667;BME280;66534;52.370;4.832;2023-02-22T01:19:30;101512.41;;;7.09;100.00
69667;BME280;66534;52.370;4.832;2023-02-22T01:20:01;101516.13;;;6.97;100.00
69667;BME280;66534;52.370;4.832;2023-02-22T01:20:39;101512.66;;;6.97;100.00
69667;BME280;66534;52.370;4.832;2023-02-22T01:21:09;101508.09;;;7.08;100.00
69667;BME280;66534;52.370;4.832;2023-02-22T01:21:40;101508.06;;;7.10;100.00
69667;BME280;66534;52.370;4.832;2023-02-22T01:22:10;101511.63;;;7.06;100.00
69667;BME280;66534;52.370;4.832;2023-02-22T01:22:41;101516.97;;;6.98;100.00
69667;BME280;66534;52.370;4.832;2023-02-22T01:23:14;101519.72;;;6.92;100.00
69667;BME280;66534;52.370;4.832;2023-02-22T01:23:46;101521.84;;;6.68;100.00
69667;BME280;66534;52.370;4.832;2023-02-22T01:24:17;101524.47;;;6.70;100.00
69667;BME280;66534;52.370;4.832;2023-02-22T01:24:48;101525.16;;;6.80;100.00
69667;BME280;66534;52.370;4.832;2023-02-22T01:25:20;101524.38;;;6.74;100.00
69667;BME280;66534;52.370;4.832;2023-02-22T01:25:53;101522.19;;;6.98;100.00
69667;BME280;66534;52.370;4.832;2023-02-22T01:26:24;101523.22;;;6.89;100.00
69667;BME280;66534;52.370;4.832;2023-02-22T01:26:54;101519.75;;;6.90;100.00
69667;BME280;66534;52.370;4.832;2023-02-22T01:27:25;101513.81;;;6.82;100.00
69667;BME280;66534;52.370;4.832;2023-02-22T01:27:55;101518.09;;;6.85;100.00
69667;BME280;66534;52.370;4.832;2023-02-22T01:28:27;101522.38;;;6.89;100.00
69667;BME280;66534;52.370;4.832;2023-02-22T01:28:58;101513.63;;;6.91;100.00
69667;BME280;66534;52.370;4.832;2023-02-22T01:29:28;101308.19;;;5.68;100.00
69667;BME280;66534;52.370;4.832;2023-02-22T01:29:58;101521.28;;;7.01;100.00
69667;BME280;66534;52.370;4.832;2023-02-22T01:30:30;101511.75;;;6.99;100.00
69667;BME280;66534;52.370;4.832;2023-02-22T01:31:02;101524.78;;;6.99;100.00
69667;BME280;66534;52.370;4.832;2023-02-22T01:31:33;101519.44;;;7.06;100.00
69667;BME280;66534;52.370;4.832;2023-02-22T01:32:03;101516.34;;;6.87;100.00
69667;BME280;66534;52.370;4.832;2023-02-22T01:32:35;101513.13;;;6.71;100.00
69667;BME280;66534;52.370;4.832;2023-02-22T01:33:07;101516.59;;;6.73;100.00
69667;BME280;66534;52.370;4.832;2023-02-22T01:33:38;101517.44;;;6.73;100.00
69667;BME280;66534;52.370;4.832;2023-02-22T01:34:10;101518.47;;;6.63;100.00
69667;BME280;66534;52.370;4.832;2023-02-22T01:34:41;101513.97;;;6.73;100.00
69667;BME280;66534;52.370;4.832;2023-02-22T01:35:13;101518.69;;;6.53;100.00
69667;BME280;66534;52.370;4.832;2023-02-22T01:35:47;101517.06;;;6.45;100.00
69667;BME280;66534;52.370;4.832;2023-02-22T01:36:19;101518.22;;;6.28;100.00
69667;BME280;66534;52.370;4.832;2023-02-22T01:36:51;101517.28;;;6.30;100.00
69667;BME280;66534;52.370;4.832;2023-02-22T01:37:21;101520.88;;;6.24;100.00
69667;BME280;66534;52.370;4.832;2023-02-22T01:37:52;101519.22;;;6.19;100.00
69667;BME280;66534;52.370;4.832;2023-02-22T01:38:22;101512.38;;;6.10;100.00
69667;BME280;66534;52.370;4.832;2023-02-22T01:38:52;101520.19;;;6.12;100.00
69667;BME280;66534;52.370;4.832;2023-02-22T01:39:23;101517.59;;;6.10;100.00
69667;BME280;66534;52.370;4.832;2023-02-22T01:39:53;101518.34;;;6.18;100.00
69667;BME280;66534;52.370;4.832;2023-02-22T01:40:25;101516.59;;;6.20;100.00
69667;BME280;66534;52.370;4.832;2023-02-22T01:41:03;101520.75;;;6.32;100.00
69667;BME280;66534;52.370;4.832;2023-02-22T01:41:35;101520.13;;;6.16;100.00
69667;BME280;66534;52.370;4.832;2023-02-22T01:42:05;101523.69;;;6.09;100.00
69667;BME280;66534;52.370;4.832;2023-02-22T01:42:38;101521.09;;;6.11;100.00
69667;BME280;66534;52.370;4.832;2023-02-22T01:43:49;101520.09;;;6.18;100.00
69667;BME280;66534;52.370;4.832;2023-02-22T01:46:01;101519.41;;;6.59;100.00
69667;BME280;66534;52.370;4.832;2023-02-22T01:46:32;101514.41;;;6.48;100.00
69667;BME280;66534;52.370;4.832;2023-02-22T01:47:04;101516.16;;;6.46;100.00
69667;BME280;66534;52.370;4.832;2023-02-22T01:47:35;101521.13;;;6.62;100.00
69667;BME280;66534;52.370;4.832;2023-02-22T01:48:14;101518.31;;;6.74;100.00
69667;BME280;66534;52.370;4.832;2023-02-22T01:48:59;101516.34;;;6.87;100.00
69667;BME280;66534;52.370;4.832;2023-02-22T01:49:34;101514.50;;;6.92;100.00
69667;BME280;66534;52.370;4.832;2023-02-22T01:50:14;101522.66;;;6.73;100.00
69667;BME280;66534;52.370;4.832;2023-02-22T01:50:53;101517.28;;;6.81;100.00
69667;BME280;66534;52.370;4.832;2023-02-22T01:51:28;101519.28;;;6.67;100.00
69667;BME280;66534;52.370;4.832;2023-02-22T01:52:07;101520.66;;;6.88;100.00
69667;BME280;66534;52.370;4.832;2023-02-22T01:52:41;101518.94;;;6.85;100.00
69667;BME280;66534;52.370;4.832;2023-02-22T01:53:12;101513.81;;;6.81;100.00
69667;BME280;66534;52.370;4.832;2023-02-22T01:53:49;101512.06;;;6.81;100.00
69667;BME280;66534;52.370;4.832;2023-02-22T01:54:32;101510.41;;;6.79;100.00
69667;BME280;66534;52.370;4.832;2023-02-22T01:55:08;101511.13;;;6.85;100.00
69667;BME280;66534;52.370;4.832;2023-02-22T01:55:40;101510.25;;;6.85;100.00
69667;BME280;66534;52.370;4.832;2023-02-22T01:56:11;101514.72;;;6.80;100.00
69667;BME280;66534;52.370;4.832;2023-02-22T01:56:47;101510.56;;;6.68;100.00
69667;BME280;66534;52.370;4.832;2023-02-22T01:57:26;101506.41;;;6.58;100.00
69667;BME280;66534;52.370;4.832;2023-02-22T01:58:02;101511.81;;;6.47;100.00
69667;BME280;66534;52.370;4.832;2023-02-22T01:58:35;101512.00;;;6.36;100.00
69667;BME280;66534;52.370;4.832;2023-02-22T01:59:08;101512.91;;;6.34;100.00
69667;BME280;66534;52.370;4.832;2023-02-22T01:59:42;101512.22;;;6.21;100.00
69667;BME280;66534;52.370;4.832;2023-02-22T02:00:15;101513.19;;;6.14;100.00
69667;BME280;66534;52.370;4.832;2023-02-22T02:00:49;101519.31;;;6.13;100.00
69667;BME280;66534;52.370;4.832;2023-02-22T02:01:20;101512.19;;;6.22;100.00
69667;BME280;66534;52.370;4.832;2023-02-22T02:01:52;101509.19;;;6.47;100.00
69667;BME280;66534;52.370;4.832;2023-02-22T02:02:23;101506.78;;;6.35;100.00
69667;BME280;66534;52.370;4.832;2023-02-22T02:02:58;101504.88;;;6.46;100.00
69667;BME280;66534;52.370;4.832;2023-02-22T02:03:32;101505.72;;;6.46;100.00
69667;BME280;66534;52.370;4.832;2023-02-22T02:04:07;101505.78;;;6.43;100.00
69667;BME280;66534;52.370;4.832;2023-02-22T02:04:40;101507.34;;;6.54;100.00
69667;BME280;66534;52.370;4.832;2023-02-22T02:05:11;101503.91;;;6.53;100.00
69667;BME280;66534;52.370;4.832;2023-02-22T02:05:43;101504.06;;;6.42;100.00
69667;BME280;66534;52.370;4.832;2023-02-22T02:06:14;101502.50;;;6.32;100.00
69667;BME280;66534;52.370;4.832;2023-02-22T02:06:45;101499.78;;;6.40;100.00
69667;BME280;66534;52.370;4.832;2023-02-22T02:07:17;101503.66;;;6.67;100.00
69667;BME280;66534;52.370;4.832;2023-02-22T02:07:50;101494.06;;;6.67;100.00
69667;BME280;66534;52.370;4.832;2023-02-22T02:09:25;101490.88;;;6.53;100.00
69667;BME280;66534;52.370;4.832;2023-02-22T02:10:02;101490.50;;;6.73;100.00
69667;BME280;66534;52.370;4.832;2023-02-22T02:10:36;101493.22;;;6.67;100.00
69667;BME280;66534;52.370;4.832;2023-02-22T02:11:07;101493.34;;;6.61;100.00
69667;BME280;66534;52.370;4.832;2023-02-22T02:11:39;101492.25;;;6.72;100.00
69667;BME280;66534;52.370;4.832;2023-02-22T02:12:11;101490.78;;;6.58;100.00
69667;BME280;66534;52.370;4.832;2023-02-22T02:12:45;101484.03;;;6.46;100.00
69667;BME280;66534;52.370;4.832;2023-02-22T02:13:17;101482.44;;;6.37;100.00
69667;BME280;66534;52.370;4.832;2023-02-22T02:13:49;101491.53;;;6.12;100.00
69667;BME280;66534;52.370;4.832;2023-02-22T02:14:21;101484.72;;;6.03;100.00
69667;BME280;66534;52.370;4.832;2023-02-22T02:14:52;101490.72;;;6.08;100.00
69667;BME280;66534;52.370;4.832;2023-02-22T02:15:23;101488.22;;;6.02;100.00
69667;BME280;66534;52.370;4.832;2023-02-22T02:15:59;101488.16;;;6.05;100.00
69667;BME280;66534;52.370;4.832;2023-02-22T02:16:35;101488.22;;;6.01;100.00
69667;BME280;66534;52.370;4.832;2023-02-22T02:17:09;101491.63;;;6.06;100.00
69667;BME280;66534;52.370;4.832;2023-02-22T02:17:43;101489.97;;;6.00;100.00
69667;BME280;66534;52.370;4.832;2023-02-22T02:18:14;101490.69;;;6.11;100.00
69667;BME280;66534;52.370;4.832;2023-02-22T02:18:45;101488.09;;;6.10;100.00
69667;BME280;66534;52.370;4.832;2023-02-22T02:19:29;101481.94;;;6.15;100.00
69667;BME280;66534;52.370;4.832;2023-02-22T02:23:09;101483.09;;;5.96;100.00
69667;BME280;66534;52.370;4.832;2023-02-22T02:24:50;101473.66;;;5.87;100.00
69667;BME280;66534;52.370;4.832;2023-02-22T02:30:36;101470.75;;;6.09;100.00
69667;BME280;66534;52.370;4.832;2023-02-22T02:31:20;101468.91;;;6.15;100.00
69667;BME280;66534;52.370;4.832;2023-02-22T02:33:57;101471.94;;;5.85;100.00
69667;BME280;66534;52.370;4.832;2023-02-22T02:35:37;101466.69;;;5.88;100.00
69667;BME280;66534;52.370;4.832;2023-02-22T02:36:32;101463.78;;;6.11;100.00
69667;BME280;66534;52.370;4.832;2023-02-22T02:38:46;101466.81;;;5.80;100.00
69667;BME280;66534;52.370;4.832;2023-02-22T02:40:42;101463.56;;;5.66;100.00
69667;BME280;66534;52.370;4.832;2023-02-22T02:41:26;101466.00;;;5.75;100.00
69667;BME280;66534;52.370;4.832;2023-02-22T02:42:24;101457.41;;;5.70;100.00
69667;BME280;66534;52.370;4.832;2023-02-22T02:43:24;101464.44;;;5.65;100.00
69667;BME280;66534;52.370;4.832;2023-02-22T02:44:03;101458.44;;;5.58;100.00
69667;BME280;66534;52.370;4.832;2023-02-22T02:44:43;101459.16;;;5.69;100.00
69667;BME280;66534;52.370;4.832;2023-02-22T02:45:22;101464.53;;;5.57;100.00
69667;BME280;66534;52.370;4.832;2023-02-22T02:46:50;101454.88;;;5.65;100.00
69667;BME280;66534;52.370;4.832;2023-02-22T02:47:27;101457.09;;;5.91;100.00
69667;BME280;66534;52.370;4.832;2023-02-22T02:48:01;101459.59;;;6.01;100.00
69667;BME280;66534;52.370;4.832;2023-02-22T02:48:36;101452.69;;;5.96;100.00
69667;BME280;66534;52.370;4.832;2023-02-22T02:49:14;101445.81;;;5.92;100.00
69667;BME280;66534;52.370;4.832;2023-02-22T02:50:04;101452.75;;;5.95;100.00
69667;BME280;66534;52.370;4.832;2023-02-22T02:50:41;101453.72;;;5.86;100.00
69667;BME280;66534;52.370;4.832;2023-02-22T02:51:15;101458.03;;;5.87;100.00
69667;BME280;66534;52.370;4.832;2023-02-22T02:51:49;101452.03;;;5.82;100.00
69667;BME280;66534;52.370;4.832;2023-02-22T02:52:23;101459.09;;;5.74;100.00
69667;BME280;66534;52.370;4.832;2023-02-22T02:52:56;101451.59;;;5.51;100.00
69667;BME280;66534;52.370;4.832;2023-02-22T02:53:38;101455.19;;;5.42;100.00
69667;BME280;66534;52.370;4.832;2023-02-22T02:54:12;101450.66;;;5.57;100.00
69667;BME280;66534;52.370;4.832;2023-02-22T02:54:44;101444.53;;;5.61;100.00
69667;BME280;66534;52.370;4.832;2023-02-22T02:55:16;101458.31;;;5.67;100.00
69667;BME280;66534;52.370;4.832;2023-02-22T02:55:48;101455.78;;;5.63;100.00
69667;BME280;66534;52.370;4.832;2023-02-22T02:56:18;101445.44;;;5.58;100.00
69667;BME280;66534;52.370;4.832;2023-02-22T02:56:49;101450.66;;;5.57;100.00
69667;BME280;66534;52.370;4.832;2023-02-22T02:57:20;101447.22;;;5.55;100.00
69667;BME280;66534;52.370;4.832;2023-02-22T02:57:50;101448.75;;;5.69;100.00
69667;BME280;66534;52.370;4.832;2023-02-22T02:58:21;101450.53;;;5.66;100.00
69667;BME280;66534;52.370;4.832;2023-02-22T02:58:52;101443.44;;;5.77;100.00
69667;BME280;66534;52.370;4.832;2023-02-22T02:59:24;101452.84;;;5.84;100.00
69667;BME280;66534;52.370;4.832;2023-02-22T02:59:57;101449.47;;;5.79;100.00
69667;BME280;66534;52.370;4.832;2023-02-22T03:00:28;101443.47;;;5.72;100.00
69667;BME280;66534;52.370;4.832;2023-02-22T03:01:08;101446.09;;;5.74;100.00
69667;BME280;66534;52.370;4.832;2023-02-22T03:01:48;101440.84;;;5.75;100.00
69667;BME280;66534;52.370;4.832;2023-02-22T03:02:49;101435.41;;;5.92;100.00
69667;BME280;66534;52.370;4.832;2023-02-22T03:03:31;101437.94;;;5.98;100.00
69667;BME280;66534;52.370;4.832;2023-02-22T03:08:09;101436.25;;;5.91;100.00
69667;BME280;66534;52.370;4.832;2023-02-22T03:08:44;101431.16;;;5.85;100.00
69667;BME280;66534;52.370;4.832;2023-02-22T03:10:52;101432.38;;;6.18;100.00
69667;BME280;66534;52.370;4.832;2023-02-22T03:11:50;101432.03;;;6.38;100.00
69667;BME280;66534;52.370;4.832;2023-02-22T03:12:33;101425.47;;;6.65;100.00
69667;BME280;66534;52.370;4.832;2023-02-22T03:13:14;101419.63;;;6.53;100.00
69667;BME280;66534;52.370;4.832;2023-02-22T03:14:51;101419.72;;;6.48;100.00
69667;BME280;66534;52.370;4.832;2023-02-22T03:17:12;101417.44;;;6.76;100.00
69667;BME280;66534;52.370;4.832;2023-02-22T03:18:19;101418.69;;;6.06;100.00
69667;BME280;66534;52.370;4.832;2023-02-22T03:19:02;101414.25;;;6.12;100.00
69667;BME280;66534;52.370;4.832;2023-02-22T03:19:44;101420.28;;;6.14;100.00
69667;BME280;66534;52.370;4.832;2023-02-22T03:20:27;101423.16;;;5.97;100.00
69667;BME280;66534;52.370;4.832;2023-02-22T03:21:49;101415.06;;;5.59;100.00
69667;BME280;66534;52.370;4.832;2023-02-22T03:22:35;101417.66;;;5.60;100.00
69667;BME280;66534;52.370;4.832;2023-02-22T03:23:34;101413.63;;;5.98;100.00
69667;BME280;66534;52.370;4.832;2023-02-22T03:24:36;101414.63;;;5.88;100.00
69667;BME280;66534;52.370;4.832;2023-02-22T03:25:08;101411.16;;;5.87;100.00
69667;BME280;66534;52.370;4.832;2023-02-22T03:25:47;101413.34;;;5.58;100.00
69667;BME280;66534;52.370;4.832;2023-02-22T03:26:25;101405.75;;;5.44;100.00
69667;BME280;66534;52.370;4.832;2023-02-22T03:27:51;101402.19;;;5.49;100.00
69667;BME280;66534;52.370;4.832;2023-02-22T03:28:26;101415.16;;;5.51;100.00
69667;BME280;66534;52.370;4.832;2023-02-22T03:28:58;101408.84;;;5.67;100.00
69667;BME280;66534;52.370;4.832;2023-02-22T03:29:35;101407.94;;;5.73;100.00
69667;BME280;66534;52.370;4.832;2023-02-22T03:30:15;101402.66;;;5.78;100.00
69667;BME280;66534;52.370;4.832;2023-02-22T03:31:06;101404.50;;;5.68;100.00
69667;BME280;66534;52.370;4.832;2023-02-22T03:31:43;101394.19;;;5.62;100.00
69667;BME280;66534;52.370;4.832;2023-02-22T03:32:21;101407.00;;;5.77;100.00
69667;BME280;66534;52.370;4.832;2023-02-22T03:32:59;101399.94;;;5.84;100.00
69667;BME280;66534;52.370;4.832;2023-02-22T03:33:42;101388.81;;;5.74;100.00
69667;BME280;66534;52.370;4.832;2023-02-22T03:34:18;101399.41;;;5.62;100.00
69667;BME280;66534;52.370;4.832;2023-02-22T03:35:09;101395.91;;;5.63;100.00
69667;BME280;66534;52.370;4.832;2023-02-22T03:35:45;101390.41;;;5.83;100.00
69667;BME280;66534;52.370;4.832;2023-02-22T03:36:28;101390.28;;;5.90;100.00
69667;BME280;66534;52.370;4.832;2023-02-22T03:37:07;101385.75;;;6.03;100.00
69667;BME280;66534;52.370;4.832;2023-02-22T03:37:45;101386.69;;;5.99;100.00
69667;BME280;66534;52.370;4.832;2023-02-22T03:38:19;101386.50;;;6.10;100.00
69667;BME280;66534;52.370;4.832;2023-02-22T03:38:50;101388.38;;;6.03;100.00
69667;BME280;66534;52.370;4.832;2023-02-22T03:39:25;101389.16;;;6.08;100.00
69667;BME280;66534;52.370;4.832;2023-02-22T03:40:00;101383.91;;;6.10;100.00
69667;BME280;66534;52.370;4.832;2023-02-22T03:40:44;101392.66;;;6.07;100.00
69667;BME280;66534;52.370;4.832;2023-02-22T03:41:18;101385.72;;;6.05;100.00